sensor_id;sensor_type;location;lat;lon;timestamp;pressure;altitude;pressure_sealevel;temperature
76898;BMP180;65856;52.178;21.176;2023-01-15T00:00:09;99895.80;;;4.20
76898;BMP180;65856;52.178;21.176;2023-01-15T00:02:37;99892.40;;;4.20
76898;BMP180;65856;52.178;21.176;2023-01-15T00:05:07;99889.20;;;4.20
76898;BMP180;65856;52.178;21.176;2023-01-15T00:07:36;99879.40;;;4.26
76898;BMP180;65856;52.178;21.176;2023-01-15T00:10:05;99872.40;;;4.30
76898;BMP180;65856;52.178;21.176;2023-01-15T00:12:34;99875.00;;;4.30
76898;BMP180;65856;52.178;21.176;2023-01-15T00:15:02;99868.60;;;4.30
76898;BMP180;65856;52.178;21.176;2023-01-15T00:17:30;99864.80;;;4.30
76898;BMP180;65856;52.178;21.176;2023-01-15T00:19:58;99856.60;;;4.30
76898;BMP180;65856;52.178;21.176;2023-01-15T00:22:28;99860.40;;;4.30
76898;BMP180;65856;52.178;21.176;2023-01-15T00:24:56;99848.80;;;4.28
76898;BMP180;65856;52.178;21.176;2023-01-15T00:27:42;99841.40;;;4.26
76898;BMP180;65856;52.178;21.176;2023-01-15T00:30:14;99835.80;;;4.30
76898;BMP180;65856;52.178;21.176;2023-01-15T00:32:44;99833.20;;;4.30
76898;BMP180;65856;52.178;21.176;2023-01-15T00:35:15;99810.80;;;4.28
76898;BMP180;65856;52.178;21.176;2023-01-15T00:37:44;99814.00;;;4.20
76898;BMP180;65856;52.178;21.176;2023-01-15T00:40:14;99807.80;;;4.20
76898;BMP180;65856;52.178;21.176;2023-01-15T00:42:42;99802.20;;;4.20
76898;BMP180;65856;52.178;21.176;2023-01-15T00:45:11;99807.20;;;4.18
76898;BMP180;65856;52.178;21.176;2023-01-15T00:47:41;99810.60;;;4.12
76898;BMP180;65856;52.178;21.176;2023-01-15T00:50:13;99797.00;;;4.10
76898;BMP180;65856;52.178;21.176;2023-01-15T00:52:42;99806.80;;;4.20
76898;BMP180;65856;52.178;21.176;2023-01-15T00:55:10;99792.00;;;4.20
76898;BMP180;65856;52.178;21.176;2023-01-15T00:57:38;99791.20;;;4.20
76898;BMP180;65856;52.178;21.176;2023-01-15T01:00:09;99789.40;;;4.12
76898;BMP180;65856;52.178;21.176;2023-01-15T01:02:39;99782.80;;;4.10
76898;BMP180;65856;52.178;21.176;2023-01-15T01:05:08;99784.20;;;4.10
76898;BMP180;65856;52.178;21.176;2023-01-15T01:07:37;99781.20;;;4.10
76898;BMP180;65856;52.178;21.176;2023-01-15T01:10:07;99765.60;;;4.10
76898;BMP180;65856;52.178;21.176;2023-01-15T01:12:35;99772.20;;;4.16
76898;BMP180;65856;52.178;21.176;2023-01-15T01:15:06;99764.00;;;4.12
76898;BMP180;65856;52.178;21.176;2023-01-15T01:17:36;99764.80;;;4.10
76898;BMP180;65856;52.178;21.176;2023-01-15T01:20:08;99767.80;;;4.10
76898;BMP180;65856;52.178;21.176;2023-01-15T01:22:37;99764.40;;;4.10
76898;BMP180;65856;52.178;21.176;2023-01-15T01:25:08;99768.00;;;4.10
76898;BMP180;65856;52.178;21.176;2023-01-15T01:27:36;99764.00;;;4.10
76898;BMP180;65856;52.178;21.176;2023-01-15T01:30:07;99756.20;;;4.10
76898;BMP180;65856;52.178;21.176;2023-01-15T01:32:35;99760.00;;;4.10
76898;BMP180;65856;52.178;21.176;2023-01-15T01:35:05;99753.20;;;4.10
76898;BMP180;65856;52.178;21.176;2023-01-15T01:37:33;99752.00;;;4.10
76898;BMP180;65856;52.178;21.176;2023-01-15T01:40:01;99747.80;;;4.10
76898;BMP180;65856;52.178;21.176;2023-01-15T01:42:29;99752.40;;;4.10
76898;BMP180;65856;52.178;21.176;2023-01-15T01:45:18;99739.20;;;4.10
76898;BMP180;65856;52.178;21.176;2023-01-15T01:47:47;99747.40;;;4.10
76898;BMP180;65856;52.178;21.176;2023-01-15T01:50:16;99733.80;;;4.08
76898;BMP180;65856;52.178;21.176;2023-01-15T01:52:50;99747.00;;;4.06
76898;BMP180;65856;52.178;21.176;2023-01-15T01:55:23;99732.00;;;4.06
76898;BMP180;65856;52.178;21.176;2023-01-15T01:57:56;99740.80;;;4.00
76898;BMP180;65856;52.178;21.176;2023-01-15T02:00:27;99732.40;;;4.00
76898;BMP180;65856;52.178;21.176;2023-01-15T02:02:55;99714.40;;;4.00
76898;BMP180;65856;52.178;21.176;2023-01-15T02:05:30;99713.60;;;3.92
76898;BMP180;65856;52.178;21.176;2023-01-15T02:07:59;99708.40;;;3.90
76898;BMP180;65856;52.178;21.176;2023-01-15T02:10:28;99701.00;;;3.90
76898;BMP180;65856;52.178;21.176;2023-01-15T02:13:03;99686.80;;;3.84
76898;BMP180;65856;52.178;21.176;2023-01-15T02:15:39;99682.00;;;3.82
76898;BMP180;65856;52.178;21.176;2023-01-15T02:18:17;99674.60;;;3.80
76898;BMP180;65856;52.178;21.176;2023-01-15T02:20:53;99669.00;;;3.80
76898;BMP180;65856;52.178;21.176;2023-01-15T02:23:59;99676.80;;;3.70
76898;BMP180;65856;52.178;21.176;2023-01-15T02:26:53;99676.20;;;3.70
76898;BMP180;65856;52.178;21.176;2023-01-15T02:29:32;99668.20;;;3.70
76898;BMP180;65856;52.178;21.176;2023-01-15T02:32:07;99667.60;;;3.62
76898;BMP180;65856;52.178;21.176;2023-01-15T02:34:42;99676.20;;;3.64
76898;BMP180;65856;52.178;21.176;2023-01-15T02:37:19;99673.40;;;3.70
76898;BMP180;65856;52.178;21.176;2023-01-15T02:39:51;99668.40;;;3.62
76898;BMP180;65856;52.178;21.176;2023-01-15T02:42:22;99678.60;;;3.60
76898;BMP180;65856;52.178;21.176;2023-01-15T02:44:54;99662.40;;;3.60
76898;BMP180;65856;52.178;21.176;2023-01-15T02:47:28;99674.40;;;3.60
76898;BMP180;65856;52.178;21.176;2023-01-15T02:50:03;99670.00;;;3.60
76898;BMP180;65856;52.178;21.176;2023-01-15T02:52:37;99663.40;;;3.60
76898;BMP180;65856;52.178;21.176;2023-01-15T02:55:13;99654.40;;;3.60
76898;BMP180;65856;52.178;21.176;2023-01-15T02:57:46;99648.60;;;3.60
76898;BMP180;65856;52.178;21.176;2023-01-15T03:00:19;99642.20;;;3.64
76898;BMP180;65856;52.178;21.176;2023-01-15T03:02:54;99642.80;;;3.64
76898;BMP180;65856;52.178;21.176;2023-01-15T03:05:32;99624.80;;;3.60
76898;BMP180;65856;52.178;21.176;2023-01-15T03:08:07;99609.40;;;3.60
76898;BMP180;65856;52.178;21.176;2023-01-15T03:10:42;99608.40;;;3.60
76898;BMP180;65856;52.178;21.176;2023-01-15T03:13:22;99599.20;;;3.60
76898;BMP180;65856;52.178;21.176;2023-01-15T03:15:59;99603.20;;;3.60
76898;BMP180;65856;52.178;21.176;2023-01-15T03:18:54;99588.60;;;3.66
76898;BMP180;65856;52.178;21.176;2023-01-15T03:21:30;99596.40;;;3.70
76898;BMP180;65856;52.178;21.176;2023-01-15T03:24:05;99585.40;;;3.70
76898;BMP180;65856;52.178;21.176;2023-01-15T03:26:34;99574.20;;;3.70
76898;BMP180;65856;52.178;21.176;2023-01-15T03:29:05;99572.60;;;3.70
76898;BMP180;65856;52.178;21.176;2023-01-15T03:31:36;99568.80;;;3.70
76898;BMP180;65856;52.178;21.176;2023-01-15T03:34:04;99572.80;;;3.70
76898;BMP180;65856;52.178;21.176;2023-01-15T03:36:33;99575.60;;;3.70
76898;BMP180;65856;52.178;21.176;2023-01-15T03:39:02;99588.80;;;3.70
76898;BMP180;65856;52.178;21.176;2023-01-15T03:41:46;99584.40;;;3.78
76898;BMP180;65856;52.178;21.176;2023-01-15T03:44:29;99566.80;;;3.80
76898;BMP180;65856;52.178;21.176;2023-01-15T03:47:13;99560.00;;;3.80
76898;BMP180;65856;52.178;21.176;2023-01-15T03:49:58;99547.80;;;3.76
76898;BMP180;65856;52.178;21.176;2023-01-15T03:52:38;99551.80;;;3.72
76898;BMP180;65856;52.178;21.176;2023-01-15T03:55:16;99534.00;;;3.70
76898;BMP180;65856;52.178;21.176;2023-01-15T03:57:50;99532.80;;;3.70
76898;BMP180;65856;52.178;21.176;2023-01-15T04:00:27;99532.00;;;3.80
76898;BMP180;65856;52.178;21.176;2023-01-15T04:03:00;99529.00;;;3.80
76898;BMP180;65856;52.178;21.176;2023-01-15T04:05:31;99536.20;;;3.80
76898;BMP180;65856;52.178;21.176;2023-01-15T04:08:02;99542.40;;;3.78
76898;BMP180;65856;52.178;21.176;2023-01-15T04:10:31;99530.60;;;3.80
76898;BMP180;65856;52.178;21.176;2023-01-15T04:12:59;99514.60;;;3.80
76898;BMP180;65856;52.178;21.176;2023-01-15T04:15:28;99507.60;;;3.80
76898;BMP180;65856;52.178;21.176;2023-01-15T04:17:56;99510.00;;;3.80
76898;BMP180;65856;52.178;21.176;2023-01-15T04:20:24;99502.20;;;3.82
76898;BMP180;65856;52.178;21.176;2023-01-15T04:22:52;99501.40;;;3.86
76898;BMP180;65856;52.178;21.176;2023-01-15T04:25:20;99504.40;;;3.90
76898;BMP180;65856;52.178;21.176;2023-01-15T04:27:48;99511.20;;;3.90
76898;BMP180;65856;52.178;21.176;2023-01-15T04:30:17;99497.80;;;3.90
76898;BMP180;65856;52.178;21.176;2023-01-15T04:32:48;99491.60;;;3.90
76898;BMP180;65856;52.178;21.176;2023-01-15T04:35:17;99497.80;;;3.90
76898;BMP180;65856;52.178;21.176;2023-01-15T04:37:46;99469.80;;;3.90
76898;BMP180;65856;52.178;21.176;2023-01-15T04:40:15;99477.60;;;3.90
76898;BMP180;65856;52.178;21.176;2023-01-15T04:42:58;99464.60;;;4.00
76898;BMP180;65856;52.178;21.176;2023-01-15T04:45:45;99452.80;;;4.00
76898;BMP180;65856;52.178;21.176;2023-01-15T04:48:13;99450.60;;;4.00
76898;BMP180;65856;52.178;21.176;2023-01-15T04:50:41;99454.60;;;3.90
76898;BMP180;65856;52.178;21.176;2023-01-15T04:53:09;99452.60;;;3.90
76898;BMP180;65856;52.178;21.176;2023-01-15T04:55:38;99445.00;;;3.90
76898;BMP180;65856;52.178;21.176;2023-01-15T04:58:07;99445.00;;;3.90
76898;BMP180;65856;52.178;21.176;2023-01-15T05:00:35;99451.40;;;4.00
76898;BMP180;65856;52.178;21.176;2023-01-15T05:03:03;99436.80;;;4.00
76898;BMP180;65856;52.178;21.176;2023-01-15T05:05:31;99414.20;;;4.00
76898;BMP180;65856;52.178;21.176;2023-01-15T05:08:00;99426.60;;;4.00
76898;BMP180;65856;52.178;21.176;2023-01-15T05:10:28;99428.40;;;4.00
76898;BMP180;65856;52.178;21.176;2023-01-15T05:12:56;99415.80;;;4.00
76898;BMP180;65856;52.178;21.176;2023-01-15T05:15:24;99417.00;;;4.00
76898;BMP180;65856;52.178;21.176;2023-01-15T05:17:52;99427.20;;;4.00
76898;BMP180;65856;52.178;21.176;2023-01-15T05:20:20;99417.40;;;4.00
76898;BMP180;65856;52.178;21.176;2023-01-15T05:22:48;99416.00;;;4.00
76898;BMP180;65856;52.178;21.176;2023-01-15T05:25:17;99410.80;;;4.00
76898;BMP180;65856;52.178;21.176;2023-01-15T05:27:45;99421.40;;;4.00
76898;BMP180;65856;52.178;21.176;2023-01-15T05:30:14;99401.20;;;4.00
76898;BMP180;65856;52.178;21.176;2023-01-15T05:32:42;99404.60;;;4.00
76898;BMP180;65856;52.178;21.176;2023-01-15T05:35:11;99398.60;;;4.00
76898;BMP180;65856;52.178;21.176;2023-01-15T05:37:39;99396.40;;;4.00
76898;BMP180;65856;52.178;21.176;2023-01-15T05:40:11;99403.60;;;4.06
76898;BMP180;65856;52.178;21.176;2023-01-15T05:42:39;99413.60;;;4.10
76898;BMP180;65856;52.178;21.176;2023-01-15T05:45:09;99414.40;;;4.10
76898;BMP180;65856;52.178;21.176;2023-01-15T05:47:37;99422.80;;;4.10
76898;BMP180;65856;52.178;21.176;2023-01-15T05:50:07;99406.40;;;4.10
76898;BMP180;65856;52.178;21.176;2023-01-15T05:52:36;99407.00;;;4.12
76898;BMP180;65856;52.178;21.176;2023-01-15T05:55:05;99416.20;;;4.20
76898;BMP180;65856;52.178;21.176;2023-01-15T05:57:34;99405.40;;;4.20
76898;BMP180;65856;52.178;21.176;2023-01-15T06:00:03;99407.80;;;4.20
76898;BMP180;65856;52.178;21.176;2023-01-15T06:02:31;99409.00;;;4.30
76898;BMP180;65856;52.178;21.176;2023-01-15T06:05:00;99410.40;;;4.30
76898;BMP180;65856;52.178;21.176;2023-01-15T06:07:28;99396.40;;;4.30
76898;BMP180;65856;52.178;21.176;2023-01-15T06:09:56;99390.00;;;4.30
76898;BMP180;65856;52.178;21.176;2023-01-15T06:12:24;99395.00;;;4.30
76898;BMP180;65856;52.178;21.176;2023-01-15T06:14:52;99387.20;;;4.30
76898;BMP180;65856;52.178;21.176;2023-01-15T06:17:20;99371.60;;;4.38
76898;BMP180;65856;52.178;21.176;2023-01-15T06:19:48;99372.40;;;4.40
76898;BMP180;65856;52.178;21.176;2023-01-15T06:22:17;99375.60;;;4.40
76898;BMP180;65856;52.178;21.176;2023-01-15T06:24:45;99371.00;;;4.50
76898;BMP180;65856;52.178;21.176;2023-01-15T06:27:13;99358.80;;;4.50
76898;BMP180;65856;52.178;21.176;2023-01-15T06:29:41;99355.80;;;4.50
76898;BMP180;65856;52.178;21.176;2023-01-15T06:32:09;99356.00;;;4.50
76898;BMP180;65856;52.178;21.176;2023-01-15T06:34:37;99345.00;;;4.50
76898;BMP180;65856;52.178;21.176;2023-01-15T06:37:05;99342.00;;;4.50
76898;BMP180;65856;52.178;21.176;2023-01-15T06:39:33;99356.00;;;4.50
76898;BMP180;65856;52.178;21.176;2023-01-15T06:42:01;99348.20;;;4.50
76898;BMP180;65856;52.178;21.176;2023-01-15T06:44:48;99354.00;;;4.54
76898;BMP180;65856;52.178;21.176;2023-01-15T06:47:34;99354.20;;;4.60
76898;BMP180;65856;52.178;21.176;2023-01-15T06:50:02;99357.20;;;4.60
76898;BMP180;65856;52.178;21.176;2023-01-15T06:52:30;99359.20;;;4.60
76898;BMP180;65856;52.178;21.176;2023-01-15T06:54:58;99364.80;;;4.60
76898;BMP180;65856;52.178;21.176;2023-01-15T06:57:27;99366.20;;;4.60
76898;BMP180;65856;52.178;21.176;2023-01-15T06:59:55;99351.00;;;4.50
76898;BMP180;65856;52.178;21.176;2023-01-15T07:02:23;99344.80;;;4.50
76898;BMP180;65856;52.178;21.176;2023-01-15T07:04:51;99331.60;;;4.54
76898;BMP180;65856;52.178;21.176;2023-01-15T07:07:21;99332.40;;;4.52
76898;BMP180;65856;52.178;21.176;2023-01-15T07:09:50;99330.60;;;4.52
76898;BMP180;65856;52.178;21.176;2023-01-15T07:12:18;99337.80;;;4.52
76898;BMP180;65856;52.178;21.176;2023-01-15T07:14:46;99340.80;;;4.54
76898;BMP180;65856;52.178;21.176;2023-01-15T07:17:14;99339.60;;;4.50
76898;BMP180;65856;52.178;21.176;2023-01-15T07:19:43;99330.60;;;4.50
76898;BMP180;65856;52.178;21.176;2023-01-15T07:22:11;99332.60;;;4.50
76898;BMP180;65856;52.178;21.176;2023-01-15T07:24:39;99327.40;;;4.50
76898;BMP180;65856;52.178;21.176;2023-01-15T07:27:08;99335.60;;;4.50
76898;BMP180;65856;52.178;21.176;2023-01-15T07:29:36;99337.00;;;4.50
76898;BMP180;65856;52.178;21.176;2023-01-15T07:32:05;99342.40;;;4.50
76898;BMP180;65856;52.178;21.176;2023-01-15T07:34:33;99334.80;;;4.50
76898;BMP180;65856;52.178;21.176;2023-01-15T07:37:01;99336.00;;;4.50
76898;BMP180;65856;52.178;21.176;2023-01-15T07:39:30;99330.40;;;4.40
76898;BMP180;65856;52.178;21.176;2023-01-15T07:41:58;99326.40;;;4.40
76898;BMP180;65856;52.178;21.176;2023-01-15T07:44:56;99324.80;;;4.40
76898;BMP180;65856;52.178;21.176;2023-01-15T07:47:42;99323.20;;;4.40
76898;BMP180;65856;52.178;21.176;2023-01-15T07:50:29;99316.20;;;4.40
76898;BMP180;65856;52.178;21.176;2023-01-15T07:52:57;99321.60;;;4.40
76898;BMP180;65856;52.178;21.176;2023-01-15T07:55:25;99318.00;;;4.42
76898;BMP180;65856;52.178;21.176;2023-01-15T07:57:53;99309.60;;;4.42
76898;BMP180;65856;52.178;21.176;2023-01-15T08:00:24;99311.80;;;4.40
76898;BMP180;65856;52.178;21.176;2023-01-15T08:02:52;99314.40;;;4.40
76898;BMP180;65856;52.178;21.176;2023-01-15T08:05:20;99311.60;;;4.40
76898;BMP180;65856;52.178;21.176;2023-01-15T08:07:48;99312.00;;;4.40
76898;BMP180;65856;52.178;21.176;2023-01-15T08:10:17;99311.20;;;4.40
76898;BMP180;65856;52.178;21.176;2023-01-15T08:12:49;99315.20;;;4.40
76898;BMP180;65856;52.178;21.176;2023-01-15T08:15:39;99314.40;;;4.50
76898;BMP180;65856;52.178;21.176;2023-01-15T08:18:10;99299.60;;;4.50
76898;BMP180;65856;52.178;21.176;2023-01-15T08:20:38;99306.40;;;4.52
76898;BMP180;65856;52.178;21.176;2023-01-15T08:23:06;99304.40;;;4.60
76898;BMP180;65856;52.178;21.176;2023-01-15T08:25:34;99299.80;;;4.60
76898;BMP180;65856;52.178;21.176;2023-01-15T08:28:03;99295.00;;;4.60
76898;BMP180;65856;52.178;21.176;2023-01-15T08:30:31;99295.40;;;4.60
76898;BMP180;65856;52.178;21.176;2023-01-15T08:33:02;99296.80;;;4.60
76898;BMP180;65856;52.178;21.176;2023-01-15T08:35:30;99288.60;;;4.70
76898;BMP180;65856;52.178;21.176;2023-01-15T08:38:04;99290.80;;;4.70
76898;BMP180;65856;52.178;21.176;2023-01-15T08:40:33;99287.80;;;4.80
76898;BMP180;65856;52.178;21.176;2023-01-15T08:43:02;99293.60;;;4.90
76898;BMP180;65856;52.178;21.176;2023-01-15T08:45:30;99296.40;;;4.90
76898;BMP180;65856;52.178;21.176;2023-01-15T08:47:59;99290.40;;;4.90
76898;BMP180;65856;52.178;21.176;2023-01-15T08:50:27;99291.40;;;4.96
76898;BMP180;65856;52.178;21.176;2023-01-15T08:52:55;99289.60;;;4.98
76898;BMP180;65856;52.178;21.176;2023-01-15T08:55:23;99284.60;;;5.00
76898;BMP180;65856;52.178;21.176;2023-01-15T08:57:51;99277.80;;;5.00
76898;BMP180;65856;52.178;21.176;2023-01-15T09:00:21;99273.80;;;5.04
76898;BMP180;65856;52.178;21.176;2023-01-15T09:02:51;99288.60;;;5.10
76898;BMP180;65856;52.178;21.176;2023-01-15T09:05:19;99287.00;;;5.18
76898;BMP180;65856;52.178;21.176;2023-01-15T09:07:47;99276.80;;;5.20
76898;BMP180;65856;52.178;21.176;2023-01-15T09:10:16;99278.00;;;5.20
76898;BMP180;65856;52.178;21.176;2023-01-15T09:12:45;99272.20;;;5.20
76898;BMP180;65856;52.178;21.176;2023-01-15T09:15:13;99276.80;;;5.20
76898;BMP180;65856;52.178;21.176;2023-01-15T09:17:42;99268.80;;;5.20
76898;BMP180;65856;52.178;21.176;2023-01-15T09:20:13;99264.60;;;5.30
76898;BMP180;65856;52.178;21.176;2023-01-15T09:22:41;99271.80;;;5.30
76898;BMP180;65856;52.178;21.176;2023-01-15T09:25:10;99271.00;;;5.32
76898;BMP180;65856;52.178;21.176;2023-01-15T09:27:38;99266.00;;;5.30
76898;BMP180;65856;52.178;21.176;2023-01-15T09:30:13;99261.60;;;5.30
76898;BMP180;65856;52.178;21.176;2023-01-15T09:32:42;99263.00;;;5.30
76898;BMP180;65856;52.178;21.176;2023-01-15T09:35:11;99261.00;;;5.20
76898;BMP180;65856;52.178;21.176;2023-01-15T09:37:39;99259.40;;;5.20
76898;BMP180;65856;52.178;21.176;2023-01-15T09:40:21;99262.00;;;5.20
76898;BMP180;65856;52.178;21.176;2023-01-15T09:42:57;99247.80;;;5.20
76898;BMP180;65856;52.178;21.176;2023-01-15T09:45:36;99253.40;;;5.20
76898;BMP180;65856;52.178;21.176;2023-01-15T09:48:22;99250.00;;;5.20
76898;BMP180;65856;52.178;21.176;2023-01-15T09:51:17;99249.40;;;5.20
76898;BMP180;65856;52.178;21.176;2023-01-15T09:54:12;99255.60;;;5.20
76898;BMP180;65856;52.178;21.176;2023-01-15T09:56:41;99245.00;;;5.16
76898;BMP180;65856;52.178;21.176;2023-01-15T09:59:21;99243.60;;;5.20
76898;BMP180;65856;52.178;21.176;2023-01-15T10:01:53;99241.00;;;5.20
76898;BMP180;65856;52.178;21.176;2023-01-15T10:04:35;99235.80;;;5.20
76898;BMP180;65856;52.178;21.176;2023-01-15T10:07:17;99235.40;;;5.20
76898;BMP180;65856;52.178;21.176;2023-01-15T10:09:55;99235.80;;;5.20
76898;BMP180;65856;52.178;21.176;2023-01-15T10:12:28;99225.20;;;5.14
76898;BMP180;65856;52.178;21.176;2023-01-15T10:15:29;99226.60;;;5.14
76898;BMP180;65856;52.178;21.176;2023-01-15T10:17:59;99226.20;;;5.16
76898;BMP180;65856;52.178;21.176;2023-01-15T10:20:48;99224.60;;;5.20
76898;BMP180;65856;52.178;21.176;2023-01-15T10:23:48;99222.00;;;5.20
76898;BMP180;65856;52.178;21.176;2023-01-15T10:26:28;99222.40;;;5.20
76898;BMP180;65856;52.178;21.176;2023-01-15T10:29:01;99215.60;;;5.20
76898;BMP180;65856;52.178;21.176;2023-01-15T10:31:54;99208.00;;;5.10
76898;BMP180;65856;52.178;21.176;2023-01-15T10:37:47;99209.40;;;5.10
76898;BMP180;65856;52.178;21.176;2023-01-15T10:40:42;99211.60;;;5.10
76898;BMP180;65856;52.178;21.176;2023-01-15T10:43:19;99205.60;;;5.20
76898;BMP180;65856;52.178;21.176;2023-01-15T10:45:54;99205.20;;;5.20
76898;BMP180;65856;52.178;21.176;2023-01-15T10:48:33;99201.40;;;5.20
76898;BMP180;65856;52.178;21.176;2023-01-15T10:51:16;99190.20;;;5.20
76898;BMP180;65856;52.178;21.176;2023-01-15T10:53:51;99188.80;;;5.20
76898;BMP180;65856;52.178;21.176;2023-01-15T10:56:32;99190.80;;;5.20
76898;BMP180;65856;52.178;21.176;2023-01-15T10:59:13;99178.00;;;5.20
76898;BMP180;65856;52.178;21.176;2023-01-15T11:01:42;99183.40;;;5.20
76898;BMP180;65856;52.178;21.176;2023-01-15T11:04:12;99180.00;;;5.20
76898;BMP180;65856;52.178;21.176;2023-01-15T11:06:40;99186.60;;;5.20
76898;BMP180;65856;52.178;21.176;2023-01-15T11:09:18;99186.60;;;5.20
76898;BMP180;65856;52.178;21.176;2023-01-15T11:11:51;99186.20;;;5.20
76898;BMP180;65856;52.178;21.176;2023-01-15T11:14:41;99179.00;;;5.14
76898;BMP180;65856;52.178;21.176;2023-01-15T11:17:31;99175.60;;;5.12
76898;BMP180;65856;52.178;21.176;2023-01-15T11:20:27;99176.80;;;5.10
76898;BMP180;65856;52.178;21.176;2023-01-15T11:23:05;99164.20;;;5.12
76898;BMP180;65856;52.178;21.176;2023-01-15T11:25:33;99167.80;;;5.20
76898;BMP180;65856;52.178;21.176;2023-01-15T11:28:05;99168.80;;;5.20
76898;BMP180;65856;52.178;21.176;2023-01-15T11:30:37;99158.60;;;5.20
76898;BMP180;65856;52.178;21.176;2023-01-15T11:33:20;99165.40;;;5.18
76898;BMP180;65856;52.178;21.176;2023-01-15T11:35:50;99155.60;;;5.10
76898;BMP180;65856;52.178;21.176;2023-01-15T11:38:19;99156.20;;;5.10
76898;BMP180;65856;52.178;21.176;2023-01-15T11:40:55;99154.00;;;5.10
76898;BMP180;65856;52.178;21.176;2023-01-15T11:43:27;99153.80;;;5.10
76898;BMP180;65856;52.178;21.176;2023-01-15T11:46:29;99151.60;;;5.10
76898;BMP180;65856;52.178;21.176;2023-01-15T11:49:18;99150.60;;;5.10
76898;BMP180;65856;52.178;21.176;2023-01-15T11:52:09;99147.20;;;5.10
76898;BMP180;65856;52.178;21.176;2023-01-15T11:54:42;99147.80;;;5.10
76898;BMP180;65856;52.178;21.176;2023-01-15T11:57:23;99149.20;;;5.10
76898;BMP180;65856;52.178;21.176;2023-01-15T11:59:52;99139.60;;;5.10
76898;BMP180;65856;52.178;21.176;2023-01-15T12:02:31;99145.00;;;5.10
76898;BMP180;65856;52.178;21.176;2023-01-15T12:05:06;99137.00;;;5.20
76898;BMP180;65856;52.178;21.176;2023-01-15T12:07:41;99137.20;;;5.20
76898;BMP180;65856;52.178;21.176;2023-01-15T12:10:19;99125.20;;;5.20
76898;BMP180;65856;52.178;21.176;2023-01-15T12:13:22;99127.40;;;5.20
76898;BMP180;65856;52.178;21.176;2023-01-15T12:16:04;99122.20;;;5.20
76898;BMP180;65856;52.178;21.176;2023-01-15T12:18:56;99125.60;;;5.20
76898;BMP180;65856;52.178;21.176;2023-01-15T12:21:48;99115.00;;;5.20
76898;BMP180;65856;52.178;21.176;2023-01-15T12:24:40;99118.20;;;5.26
76898;BMP180;65856;52.178;21.176;2023-01-15T12:27:43;99114.80;;;5.26
76898;BMP180;65856;52.178;21.176;2023-01-15T12:30:26;99116.80;;;5.20
76898;BMP180;65856;52.178;21.176;2023-01-15T12:33:10;99125.60;;;5.20
76898;BMP180;65856;52.178;21.176;2023-01-15T12:35:47;99126.20;;;5.20
76898;BMP180;65856;52.178;21.176;2023-01-15T12:38:28;99129.80;;;5.20
76898;BMP180;65856;52.178;21.176;2023-01-15T12:41:06;99131.60;;;5.20
76898;BMP180;65856;52.178;21.176;2023-01-15T12:43:35;99128.60;;;5.20
76898;BMP180;65856;52.178;21.176;2023-01-15T12:46:28;99124.80;;;5.26
76898;BMP180;65856;52.178;21.176;2023-01-15T12:49:05;99128.20;;;5.30
76898;BMP180;65856;52.178;21.176;2023-01-15T12:51:48;99127.00;;;5.30
76898;BMP180;65856;52.178;21.176;2023-01-15T12:54:23;99129.20;;;5.30
76898;BMP180;65856;52.178;21.176;2023-01-15T12:57:02;99126.00;;;5.30
76898;BMP180;65856;52.178;21.176;2023-01-15T12:59:36;99130.00;;;5.30
76898;BMP180;65856;52.178;21.176;2023-01-15T13:02:17;99134.20;;;5.36
76898;BMP180;65856;52.178;21.176;2023-01-15T13:04:52;99133.00;;;5.40
76898;BMP180;65856;52.178;21.176;2023-01-15T13:07:30;99130.20;;;5.44
76898;BMP180;65856;52.178;21.176;2023-01-15T13:10:08;99123.40;;;5.50
76898;BMP180;65856;52.178;21.176;2023-01-15T13:12:37;99127.40;;;5.50
76898;BMP180;65856;52.178;21.176;2023-01-15T13:15:13;99131.20;;;5.50
76898;BMP180;65856;52.178;21.176;2023-01-15T13:18:00;99128.20;;;5.46
76898;BMP180;65856;52.178;21.176;2023-01-15T13:20:44;99129.80;;;5.48
76898;BMP180;65856;52.178;21.176;2023-01-15T13:23:35;99127.20;;;5.50
76898;BMP180;65856;52.178;21.176;2023-01-15T13:26:25;99125.80;;;5.50
76898;BMP180;65856;52.178;21.176;2023-01-15T13:29:09;99128.40;;;5.50
76898;BMP180;65856;52.178;21.176;2023-01-15T13:31:57;99128.80;;;5.60
76898;BMP180;65856;52.178;21.176;2023-01-15T13:34:35;99128.00;;;5.60
76898;BMP180;65856;52.178;21.176;2023-01-15T13:37:17;99129.60;;;5.60
76898;BMP180;65856;52.178;21.176;2023-01-15T13:39:49;99124.80;;;5.60
76898;BMP180;65856;52.178;21.176;2023-01-15T13:42:22;99124.60;;;5.60
76898;BMP180;65856;52.178;21.176;2023-01-15T13:45:06;99126.00;;;5.60
76898;BMP180;65856;52.178;21.176;2023-01-15T13:47:37;99127.80;;;5.60
76898;BMP180;65856;52.178;21.176;2023-01-15T13:50:17;99133.80;;;5.66
76898;BMP180;65856;52.178;21.176;2023-01-15T13:52:46;99142.00;;;5.70
76898;BMP180;65856;52.178;21.176;2023-01-15T13:55:29;99138.00;;;5.70
76898;BMP180;65856;52.178;21.176;2023-01-15T13:57:59;99141.60;;;5.70
76898;BMP180;65856;52.178;21.176;2023-01-15T14:00:32;99146.40;;;5.70
76898;BMP180;65856;52.178;21.176;2023-01-15T14:03:02;99141.20;;;5.70
76898;BMP180;65856;52.178;21.176;2023-01-15T14:05:33;99139.20;;;5.70
76898;BMP180;65856;52.178;21.176;2023-01-15T14:08:14;99139.80;;;5.70
76898;BMP180;65856;52.178;21.176;2023-01-15T14:10:42;99143.00;;;5.70
76898;BMP180;65856;52.178;21.176;2023-01-15T14:13:58;99145.20;;;5.70
76898;BMP180;65856;52.178;21.176;2023-01-15T14:16:45;99150.60;;;5.80
76898;BMP180;65856;52.178;21.176;2023-01-15T14:19:48;99141.80;;;5.80
76898;BMP180;65856;52.178;21.176;2023-01-15T14:22:42;99143.00;;;5.80
76898;BMP180;65856;52.178;21.176;2023-01-15T14:25:40;99144.40;;;5.80
76898;BMP180;65856;52.178;21.176;2023-01-15T14:28:29;99150.80;;;5.80
76898;BMP180;65856;52.178;21.176;2023-01-15T14:31:32;99155.20;;;5.80
76898;BMP180;65856;52.178;21.176;2023-01-15T14:34:22;99155.00;;;5.80
76898;BMP180;65856;52.178;21.176;2023-01-15T14:36:54;99160.60;;;5.80
76898;BMP180;65856;52.178;21.176;2023-01-15T14:39:32;99159.40;;;5.80
76898;BMP180;65856;52.178;21.176;2023-01-15T14:42:08;99166.00;;;5.80
76898;BMP180;65856;52.178;21.176;2023-01-15T14:45:00;99162.00;;;5.90
76898;BMP180;65856;52.178;21.176;2023-01-15T14:47:36;99167.20;;;5.90
76898;BMP180;65856;52.178;21.176;2023-01-15T14:50:37;99162.60;;;5.90
76898;BMP180;65856;52.178;21.176;2023-01-15T14:53:23;99164.60;;;5.90